createdAt,value
2024-04-12T00:00:55.277Z,102695.69
2024-04-12T00:03:04.224Z,102672.06
2024-04-12T00:05:07.750Z,102679.34
2024-04-12T00:07:19.506Z,102656.09
2024-04-12T00:09:25.536Z,102671.94
2024-04-12T00:11:27.473Z,102674.22
2024-04-12T00:13:32.916Z,102674.97
2024-04-12T00:15:35.401Z,102679.88
2024-04-12T00:17:40.194Z,102674.91
2024-04-12T00:19:47.640Z,102677.25
2024-04-12T00:21:53.965Z,102662.41
2024-04-12T00:23:57.245Z,102671.56
2024-04-12T00:26:03.847Z,102661.63
2024-04-12T00:28:07.020Z,102675.13
2024-04-12T00:30:12.806Z,102669.34
2024-04-12T00:32:17.652Z,102654.59
2024-04-12T00:34:27.845Z,102669.53
2024-04-12T00:36:35.471Z,102654.41
2024-04-12T00:38:40.124Z,102673.06
2024-04-12T00:40:49.962Z,102652.94
2024-04-12T00:42:56.989Z,102671.88
2024-04-12T00:45:05.458Z,102671.66
2024-04-12T00:47:11.780Z,102672.13
2024-04-12T00:49:20.127Z,102673.31
2024-04-12T00:51:25.760Z,102670.00
2024-04-12T00:53:33.855Z,102667.69
2024-04-12T00:55:40.001Z,102664.06
2024-04-12T00:57:44.948Z,102670.38
2024-04-12T00:59:47.037Z,102645.34
2024-04-12T01:01:53.802Z,102669.59
2024-04-12T01:03:56.946Z,102651.88
2024-04-12T01:06:02.599Z,102648.75
2024-04-12T01:08:07.442Z,102671.94
2024-04-12T01:10:14.895Z,102647.66
2024-04-12T01:12:18.719Z,102668.84
2024-04-12T01:14:26.495Z,102654.25
2024-04-12T01:16:29.626Z,102666.50
2024-04-12T01:18:34.583Z,102659.50
2024-04-12T01:20:37.235Z,102658.72
2024-04-12T01:22:46.135Z,102652.94
2024-04-12T01:24:51.734Z,102634.56
2024-04-12T01:26:57.401Z,102640.28
2024-04-12T01:29:00.117Z,102644.38
2024-04-12T01:31:04.959Z,102644.78
2024-04-12T01:33:09.765Z,102638.50
2024-04-12T01:35:17.920Z,102625.75
2024-04-12T01:37:22.270Z,102619.97
2024-04-12T01:39:30.016Z,102605.03
2024-04-12T01:41:34.945Z,102638.50
2024-04-12T01:43:39.898Z,102640.47
2024-04-12T01:45:41.801Z,102638.63
2024-04-12T01:47:44.711Z,102644.03
2024-04-12T01:49:49.758Z,102613.59
2024-04-12T01:51:51.602Z,102639.03
2024-04-12T01:53:58.857Z,102603.53
2024-04-12T01:56:01.187Z,102612.09
2024-04-12T01:58:08.835Z,102638.03
2024-04-12T02:00:13.448Z,102629.16
2024-04-12T02:02:18.216Z,102639.56
2024-04-12T02:04:23.068Z,102617.50
2024-04-12T02:06:28.619Z,102632.56
2024-04-12T02:08:31.387Z,102628.31
2024-04-12T02:10:35.900Z,102624.47
2024-04-12T02:12:38.079Z,102625.34
2024-04-12T02:14:45.281Z,102628.31
2024-04-12T02:16:52.091Z,102620.97
2024-04-12T02:18:59.497Z,102494.09
2024-04-12T02:21:06.476Z,102636.06
2024-04-12T02:23:17.055Z,102626.47
2024-04-12T02:25:18.997Z,102613.28
2024-04-12T02:27:24.123Z,102626.88
2024-04-12T02:29:26.272Z,102633.00
2024-04-12T02:31:36.932Z,102621.06
2024-04-12T02:33:39.261Z,102638.03
2024-04-12T02:35:46.625Z,102642.38
2024-04-12T02:37:50.380Z,102606.53
2024-04-12T02:39:55.259Z,102635.28
2024-04-12T02:41:57.345Z,102639.66
2024-04-12T02:44:05.168Z,102638.94
2024-04-12T02:46:07.908Z,102637.34
2024-04-12T02:48:15.059Z,102636.91
2024-04-12T02:50:18.097Z,102637.69
2024-04-12T02:52:23.586Z,102638.88
2024-04-12T02:54:29.189Z,102618.75
2024-04-12T02:56:35.048Z,102631.88
2024-04-12T02:58:40.680Z,102606.88
2024-04-12T03:00:46.261Z,102631.44
2024-04-12T03:02:48.656Z,102617.19
2024-04-12T03:04:55.804Z,102633.06
2024-04-12T03:06:57.806Z,102624.97
2024-04-12T03:09:05.128Z,102622.31
2024-04-12T03:11:23.051Z,102635.44
2024-04-12T03:13:30.713Z,102614.53
2024-04-12T03:15:35.929Z,102624.56
2024-04-12T03:17:41.005Z,102607.53
2024-04-12T03:19:42.892Z,102626.13
2024-04-12T03:21:53.067Z,102626.47
2024-04-12T03:23:56.679Z,102628.09
2024-04-12T03:26:03.689Z,102622.97
2024-04-12T03:28:10.051Z,102628.84
2024-04-12T03:30:17.500Z,102621.84
2024-04-12T03:32:26.550Z,102631.03
2024-04-12T03:34:29.647Z,102616.31
2024-04-12T03:36:54.748Z,102625.28
2024-04-12T03:39:26.098Z,102604.38
2024-04-12T03:41:34.027Z,102634.34
2024-04-12T03:43:36.272Z,102617.78
2024-04-12T03:45:41.586Z,102633.84
2024-04-12T03:47:46.717Z,102627.59
2024-04-12T03:49:56.355Z,102604.03
2024-04-12T03:51:58.379Z,102637.63
2024-04-12T03:54:12.443Z,102629.50
2024-04-12T03:56:14.657Z,102622.84
2024-04-12T03:58:20.022Z,102628.41
2024-04-12T04:00:25.116Z,102627.00
2024-04-12T04:02:34.140Z,102622.66
2024-04-12T04:04:46.532Z,102635.84
2024-04-12T04:06:50.402Z,102635.50
2024-04-12T04:08:55.516Z,102612.81
2024-04-12T04:11:04.079Z,102639.47
2024-04-12T04:13:09.048Z,102594.09
2024-04-12T04:15:11.239Z,102635.03
2024-04-12T04:17:15.799Z,102643.31
2024-04-12T04:19:19.841Z,102629.00
2024-04-12T04:21:25.752Z,102617.56
2024-04-12T04:23:27.818Z,102636.09
2024-04-12T04:25:33.349Z,102626.25
2024-04-12T04:27:47.720Z,102629.28
2024-04-12T04:29:56.942Z,102627.41
2024-04-12T04:31:59.175Z,102630.81
2024-04-12T04:34:06.435Z,102637.84
2024-04-12T04:36:10.666Z,102608.84
2024-04-12T04:38:16.132Z,102632.41
2024-04-12T04:40:20.160Z,102627.41
2024-04-12T04:42:24.753Z,102633.28
2024-04-12T04:44:33.246Z,102627.72
2024-04-12T04:46:35.110Z,102639.41
2024-04-12T04:48:39.907Z,102637.94
2024-04-12T04:50:43.357Z,102619.72
2024-04-12T04:52:48.435Z,102624.41
2024-04-12T04:54:50.812Z,102627.78
2024-04-12T04:56:55.800Z,102617.63
2024-04-12T04:58:58.475Z,102605.31
2024-04-12T05:01:06.126Z,102596.59
2024-04-12T05:03:09.792Z,102616.13
2024-04-12T05:05:15.923Z,102595.31
2024-04-12T05:07:18.316Z,102599.84
2024-04-12T05:09:24.821Z,102592.88
2024-04-12T05:11:38.578Z,102618.22
2024-04-12T05:13:43.963Z,102608.22
2024-04-12T05:15:53.832Z,102605.97
2024-04-12T05:18:05.283Z,102616.78
2024-04-12T05:20:16.109Z,102608.13
2024-04-12T05:22:21.572Z,102610.84
2024-04-12T05:24:25.632Z,102615.91
2024-04-12T05:26:33.321Z,102507.38
2024-04-12T05:28:39.793Z,102594.47
2024-04-12T05:31:13.059Z,102613.03
2024-04-12T05:33:18.568Z,102614.59
2024-04-12T05:35:32.674Z,102603.81
2024-04-12T05:37:37.357Z,102611.38
2024-04-12T05:39:46.908Z,102593.75
2024-04-12T05:41:54.494Z,102560.63
2024-04-12T05:44:01.082Z,102582.56
2024-04-12T05:46:07.033Z,102584.09
2024-04-12T05:48:17.825Z,102570.59
2024-04-12T05:51:04.635Z,102607.75
2024-04-12T05:53:09.591Z,102602.00
2024-04-12T05:55:16.148Z,102554.28
2024-04-12T05:57:24.264Z,102560.03
2024-04-12T05:59:31.228Z,102601.53
2024-04-12T06:01:35.283Z,102541.19
2024-04-12T06:03:54.093Z,102595.72
2024-04-12T06:06:00.877Z,102596.41
2024-04-12T06:08:07.671Z,102516.06
2024-04-12T06:10:10.186Z,102578.88
2024-04-12T06:12:18.273Z,102602.34
2024-04-12T06:14:25.714Z,102602.78
2024-04-12T06:16:40.424Z,102592.69
2024-04-12T06:18:55.951Z,102591.41
2024-04-12T06:21:06.786Z,102597.13
2024-04-12T06:23:12.238Z,102598.56
2024-04-12T06:25:17.436Z,102593.97
2024-04-12T06:27:33.021Z,102595.69
2024-04-12T06:29:39.904Z,102599.25
2024-04-12T06:31:44.651Z,102576.84
2024-04-12T06:33:52.333Z,102597.66
2024-04-12T06:36:08.350Z,102594.78
2024-04-12T06:38:18.594Z,102588.94
2024-04-12T06:40:29.861Z,102580.06
2024-04-12T06:42:37.181Z,102604.22
2024-04-12T06:44:46.670Z,102607.06
2024-04-12T06:46:59.559Z,102594.09
2024-04-12T06:49:15.842Z,102605.84
2024-04-12T06:51:18.539Z,102557.47
2024-04-12T06:53:28.020Z,102587.44
2024-04-12T06:55:31.655Z,102608.47
2024-04-12T06:57:36.620Z,102591.13
2024-04-12T06:59:44.927Z,102597.03
2024-04-12T07:01:47.610Z,102614.00
2024-04-12T07:03:55.020Z,102619.47
2024-04-12T07:05:58.241Z,102606.09
2024-04-12T07:08:07.219Z,102629.41
2024-04-12T07:10:12.701Z,102616.25
2024-04-12T07:12:24.294Z,102629.66
2024-04-12T07:14:27.890Z,102602.59
2024-04-12T07:16:38.170Z,102626.78
2024-04-12T07:18:43.824Z,102617.69
2024-04-12T07:20:50.041Z,102624.38
2024-04-12T07:22:52.889Z,102622.13
2024-04-12T07:25:00.714Z,102626.91
2024-04-12T07:27:09.839Z,102626.38
2024-04-12T07:29:14.673Z,102598.34
2024-04-12T07:31:17.270Z,102620.34
2024-04-12T07:33:25.966Z,102630.00
2024-04-12T07:35:28.396Z,102595.63
2024-04-12T07:37:37.611Z,102623.41
2024-04-12T07:39:42.284Z,102587.41
2024-04-12T07:41:49.847Z,102612.69
2024-04-12T07:43:58.345Z,102620.50
2024-04-12T07:46:06.558Z,102584.22
2024-04-12T07:48:30.451Z,102608.44
2024-04-12T07:50:40.566Z,102613.50
2024-04-12T07:53:23.259Z,102611.84
2024-04-12T07:55:30.080Z,102604.78
2024-04-12T07:57:32.287Z,102587.16
2024-04-12T07:59:41.277Z,102590.31
2024-04-12T08:01:46.839Z,102568.91
2024-04-12T08:03:58.529Z,102599.78
2024-04-12T08:06:01.381Z,102602.50
2024-04-12T08:08:15.990Z,102576.59
2024-04-12T08:10:30.539Z,102568.63
2024-04-12T08:12:35.441Z,102600.88
2024-04-12T08:14:53.436Z,102605.50
2024-04-12T08:16:56.954Z,102565.63
2024-04-12T08:19:01.629Z,102593.75
2024-04-12T08:21:10.377Z,102598.97
2024-04-12T08:23:19.258Z,102594.13
2024-04-12T08:30:00.002Z,102597.47
2024-04-12T08:32:12.894Z,102593.47
2024-04-12T08:34:18.271Z,102578.75
2024-04-12T08:36:20.334Z,102590.53
2024-04-12T08:38:25.554Z,102545.78
2024-04-12T08:40:27.959Z,102589.94
2024-04-12T08:42:46.326Z,102587.31
2024-04-12T08:44:48.909Z,102588.09
2024-04-12T08:46:58.828Z,102598.91
2024-04-12T08:49:01.729Z,102582.78
2024-04-12T08:51:15.061Z,102583.44
2024-04-12T08:53:21.994Z,102591.78
2024-04-12T08:55:31.030Z,102573.28
2024-04-12T08:57:35.211Z,102571.22
2024-04-12T08:59:47.764Z,102567.47
2024-04-12T09:01:53.893Z,102566.66
2024-04-12T09:04:05.500Z,102562.16
2024-04-12T09:06:16.246Z,102563.00
2024-04-12T09:08:23.797Z,102561.16
2024-04-12T09:10:28.811Z,102584.00
2024-04-12T09:12:31.180Z,102582.25
2024-04-12T09:14:42.166Z,102578.81
2024-04-12T09:16:49.188Z,102582.53
2024-04-12T09:19:16.329Z,102584.50
2024-04-12T09:21:27.086Z,102549.13
2024-04-12T09:23:53.189Z,102571.53
2024-04-12T09:26:05.568Z,102580.34
2024-04-12T09:28:14.804Z,102585.47
2024-04-12T09:30:50.591Z,102566.09
2024-04-12T09:33:01.995Z,102582.06
2024-04-12T09:35:40.481Z,102553.22
2024-04-12T09:37:55.456Z,102553.28
2024-04-12T09:40:30.442Z,102532.91
2024-04-12T09:42:51.848Z,102573.66
2024-04-12T09:45:01.601Z,102579.16
2024-04-12T09:47:22.842Z,102544.06
2024-04-12T09:49:44.852Z,102517.69
2024-04-12T09:52:04.301Z,102549.13
2024-04-12T09:54:27.995Z,102528.03
2024-04-12T09:56:49.369Z,102530.28
2024-04-12T09:59:12.168Z,102559.19
2024-04-12T10:01:32.521Z,102558.97
2024-04-12T10:03:55.891Z,102560.06
2024-04-12T10:06:16.705Z,102554.72
2024-04-12T10:08:40.657Z,102559.22
2024-04-12T10:11:02.766Z,102526.31
2024-04-12T10:13:24.397Z,102513.03
2024-04-12T10:15:45.072Z,102541.75
2024-04-12T10:18:06.160Z,102544.09
2024-04-12T10:20:29.550Z,102535.28
2024-04-12T10:22:49.925Z,102525.31
2024-04-12T10:25:13.554Z,102527.59
2024-04-12T10:27:41.384Z,102519.03
2024-04-12T10:30:04.556Z,102490.78
2024-04-12T10:32:31.079Z,102527.78
2024-04-12T10:34:52.935Z,102526.59
2024-04-12T10:37:14.205Z,102527.03
2024-04-12T10:39:21.490Z,102525.16
2024-04-12T10:41:36.753Z,102509.94
2024-04-12T10:43:44.101Z,102521.97
2024-04-12T10:45:52.751Z,102515.94
2024-04-12T10:47:56.468Z,102514.09
2024-04-12T10:50:15.044Z,102506.63
2024-04-12T10:52:32.526Z,102519.47
2024-04-12T10:54:40.407Z,102507.06
2024-04-12T10:56:56.860Z,102498.56
2024-04-12T10:59:00.975Z,102503.97
2024-04-12T11:01:06.751Z,102481.75
2024-04-12T11:03:23.071Z,102438.34
2024-04-12T11:05:41.200Z,102479.34
2024-04-12T11:07:43.212Z,102467.72
2024-04-12T11:09:59.072Z,102470.69
2024-04-12T11:12:15.698Z,102474.47
2024-04-12T11:14:29.562Z,102330.00
2024-04-12T11:16:50.194Z,102466.78
2024-04-12T11:19:10.920Z,102467.19
2024-04-12T11:21:33.190Z,102460.19
2024-04-12T11:23:53.703Z,102471.28
2024-04-12T11:26:16.085Z,102475.94
2024-04-12T11:28:49.667Z,102460.72
2024-04-12T11:31:19.957Z,102472.72
2024-04-12T11:33:36.291Z,102471.28
2024-04-12T11:35:47.624Z,102426.00
2024-04-12T11:37:51.254Z,102436.44
2024-04-12T11:40:00.920Z,102471.28
2024-04-12T11:42:04.690Z,102476.53
2024-04-12T11:44:19.190Z,102458.91
2024-04-12T11:46:26.351Z,102471.84
2024-04-12T11:48:33.045Z,102465.84
2024-04-12T11:50:37.968Z,102403.06
2024-04-12T11:52:43.279Z,102448.63
2024-04-12T11:54:52.789Z,102401.31
2024-04-12T11:56:59.439Z,102451.72
2024-04-12T11:59:02.489Z,102452.06
2024-04-12T12:01:10.996Z,102451.75
2024-04-12T12:03:17.958Z,102450.38
2024-04-12T12:05:25.656Z,102434.47
2024-04-12T12:07:31.266Z,102436.47
2024-04-12T12:09:37.850Z,102431.81
2024-04-12T12:11:44.702Z,102425.69
2024-04-12T12:13:47.871Z,102389.72
2024-04-12T12:15:53.545Z,102402.22
2024-04-12T12:17:58.965Z,102407.75
2024-04-12T12:20:05.884Z,102367.75
2024-04-12T12:22:11.910Z,102395.69
2024-04-12T12:24:16.650Z,102388.63
2024-04-12T12:26:21.096Z,102386.09
2024-04-12T12:28:28.093Z,102379.41
2024-04-12T12:30:30.035Z,102378.97
2024-04-12T12:32:36.692Z,102366.81
2024-04-12T12:34:44.765Z,102382.53
2024-04-12T12:36:51.229Z,102380.31
2024-04-12T12:38:53.210Z,102373.19
2024-04-12T12:40:59.054Z,102369.63
2024-04-12T12:43:06.136Z,102381.94
2024-04-12T12:45:13.252Z,102370.81
2024-04-12T12:47:17.292Z,102375.19
2024-04-12T12:49:26.621Z,102360.63
2024-04-12T12:51:31.137Z,102338.94
2024-04-12T12:53:38.118Z,102356.22
2024-04-12T12:55:40.818Z,102344.41
2024-04-12T12:57:46.269Z,102347.00
2024-04-12T12:59:48.483Z,102351.84
2024-04-12T13:01:53.094Z,102324.25
2024-04-12T13:03:55.485Z,102351.16
2024-04-12T13:06:07.916Z,102353.44
2024-04-12T13:08:15.131Z,102352.91
2024-04-12T13:10:23.663Z,102354.78
2024-04-12T13:12:30.805Z,102330.94
2024-04-12T13:14:33.432Z,102343.25
2024-04-12T13:16:43.174Z,102340.97
2024-04-12T13:18:47.212Z,102327.25
2024-04-12T13:20:52.257Z,102318.19
2024-04-12T13:22:54.140Z,102304.06
2024-04-12T13:25:04.789Z,102299.31
2024-04-12T13:27:08.672Z,102293.13
2024-04-12T13:29:13.788Z,102309.53
2024-04-12T13:31:17.972Z,102306.63
2024-04-12T13:33:29.202Z,102315.50
2024-04-12T13:35:35.501Z,102300.84
2024-04-12T13:37:40.177Z,102301.91
2024-04-12T13:39:41.990Z,102304.75
2024-04-12T13:41:49.852Z,102292.38
2024-04-12T13:43:52.182Z,102274.19
2024-04-12T13:46:16.349Z,102227.91
2024-04-12T13:48:38.427Z,102272.06
2024-04-12T13:51:03.722Z,102258.25
2024-04-12T13:53:11.012Z,102267.06
2024-04-12T13:55:16.141Z,102274.75
2024-04-12T13:57:25.536Z,102228.31
2024-04-12T13:59:31.651Z,102245.94
2024-04-12T14:01:36.281Z,102247.81
2024-04-12T14:03:38.380Z,102234.06
2024-04-12T14:05:43.762Z,102227.59
2024-04-12T14:07:50.898Z,102236.31
2024-04-12T14:09:55.837Z,102255.06
2024-04-12T14:11:57.855Z,102242.09
2024-04-12T14:14:05.347Z,102266.63
2024-04-12T14:16:07.657Z,102263.56
2024-04-12T14:18:12.215Z,102259.84
2024-04-12T14:20:17.350Z,102257.78
2024-04-12T14:22:21.862Z,102255.47
2024-04-12T14:24:40.667Z,102254.91
2024-04-12T14:26:45.623Z,102234.22
2024-04-12T14:28:47.571Z,102214.38
2024-04-12T14:30:56.708Z,102235.66
2024-04-12T14:32:58.691Z,102214.78
2024-04-12T14:35:10.458Z,102217.59
2024-04-12T14:37:17.221Z,102215.91
2024-04-12T14:39:29.825Z,102214.38
2024-04-12T14:41:31.870Z,102203.00
2024-04-12T14:43:36.896Z,102195.50
2024-04-12T14:45:38.731Z,102197.53
2024-04-12T14:47:52.178Z,102214.88
2024-04-12T14:50:01.403Z,102196.19
2024-04-12T14:52:12.622Z,102185.69
2024-04-12T14:54:15.752Z,102192.69
2024-04-12T14:56:20.490Z,102176.44
2024-04-12T14:58:22.353Z,102176.66
2024-04-12T15:00:28.129Z,102185.03
2024-04-12T15:02:30.430Z,102192.53
2024-04-12T15:04:53.686Z,102183.94
2024-04-12T15:07:14.976Z,102194.66
2024-04-12T15:09:35.104Z,102170.56
2024-04-12T15:11:55.586Z,102171.72
2024-04-12T15:14:15.770Z,102175.31
2024-04-12T15:16:36.331Z,102185.78
2024-04-12T15:18:56.848Z,102189.25
2024-04-12T15:21:20.510Z,102187.94
2024-04-12T15:23:40.989Z,102160.00
2024-04-12T15:26:01.400Z,102176.34
2024-04-12T15:28:21.979Z,102181.53
2024-04-12T15:30:42.195Z,102202.22
2024-04-12T15:33:02.840Z,102184.75
2024-04-12T15:35:24.591Z,102194.56
2024-04-12T15:37:47.785Z,102201.84
2024-04-12T15:40:08.228Z,102192.91
2024-04-12T15:42:28.848Z,102177.63
2024-04-12T15:44:49.280Z,102201.75
2024-04-12T15:47:03.922Z,102196.34
2024-04-12T15:49:22.852Z,102196.44
2024-04-12T15:51:29.433Z,102131.84
2024-04-12T15:53:36.832Z,102193.69
2024-04-12T15:55:59.040Z,102181.44
2024-04-12T15:58:34.645Z,102174.47
2024-04-12T16:00:55.243Z,102149.34
2024-04-12T16:03:16.983Z,102158.22
2024-04-12T16:05:38.378Z,102157.91
2024-04-12T16:07:58.623Z,102175.03
2024-04-12T16:10:21.857Z,102167.41
2024-04-12T16:12:26.850Z,102161.44
2024-04-12T16:14:28.844Z,102160.47
2024-04-12T16:16:33.448Z,102153.28
2024-04-12T16:18:37.973Z,102132.97
2024-04-12T16:20:40.228Z,102160.13
2024-04-12T16:22:45.009Z,102158.38
2024-04-12T16:24:47.107Z,102152.97
2024-04-12T16:26:56.358Z,102114.78
2024-04-12T16:28:59.061Z,102149.56
2024-04-12T16:31:06.054Z,102113.69
2024-04-12T16:33:08.977Z,102088.28
2024-04-12T16:35:14.845Z,102140.91
2024-04-12T16:37:16.883Z,102122.34
2024-04-12T16:39:21.847Z,102121.19
2024-04-12T16:41:24.379Z,102137.75
2024-04-12T16:43:33.603Z,102112.59
2024-04-12T16:45:35.427Z,102113.22
2024-04-12T16:47:44.722Z,102115.03
2024-04-12T16:49:47.779Z,102136.22
2024-04-12T16:52:02.982Z,102129.00
2024-04-12T16:54:05.217Z,102133.25
2024-04-12T16:56:09.941Z,102124.91
2024-04-12T16:58:11.754Z,102117.38
2024-04-12T17:00:19.823Z,102129.34
2024-04-12T17:02:23.659Z,102128.09
2024-04-12T17:04:28.301Z,102119.25
2024-04-12T17:06:30.799Z,102121.72
2024-04-12T17:08:35.319Z,102117.16
2024-04-12T17:10:37.469Z,102111.13
2024-04-12T17:12:42.430Z,102121.53
2024-04-12T17:14:44.566Z,102123.50
2024-04-12T17:16:51.674Z,102106.44
2024-04-12T17:18:54.107Z,102106.66
2024-04-12T17:21:00.035Z,102121.09
2024-04-12T17:23:02.709Z,102117.19
2024-04-12T17:25:09.462Z,102090.72
2024-04-12T17:27:11.259Z,102102.22
2024-04-12T17:29:35.863Z,102097.78
2024-04-12T17:31:37.949Z,102110.38
2024-04-12T17:33:45.435Z,102122.81
2024-04-12T17:35:48.165Z,102109.53
2024-04-12T17:37:52.832Z,102098.06
2024-04-12T17:39:58.219Z,102115.75
2024-04-12T17:42:03.185Z,102099.28
2024-04-12T17:44:05.495Z,102094.41
2024-04-12T17:46:10.015Z,102108.91
2024-04-12T17:48:12.694Z,102093.06
2024-04-12T17:50:23.067Z,102078.91
2024-04-12T17:52:25.151Z,102078.34
2024-04-12T17:54:31.077Z,102096.16
2024-04-12T17:56:34.428Z,102107.00
2024-04-12T17:58:39.021Z,102097.38
2024-04-12T18:00:41.907Z,102099.81
2024-04-12T18:02:53.838Z,102070.13
2024-04-12T18:04:55.724Z,102112.22
2024-04-12T18:07:03.060Z,102112.69
2024-04-12T18:09:06.005Z,102114.38
2024-04-12T18:11:12.928Z,102121.88
2024-04-12T18:13:14.739Z,102093.50
2024-04-12T18:15:21.059Z,102112.97
2024-04-12T18:17:23.204Z,102115.44
2024-04-12T18:19:28.010Z,102127.88
2024-04-12T18:21:30.981Z,102111.84
2024-04-12T18:23:38.544Z,102118.72
2024-04-12T18:25:40.774Z,102124.38
2024-04-12T18:27:45.420Z,102105.16
2024-04-12T18:29:48.124Z,102106.69
2024-04-12T18:31:56.825Z,102108.38
2024-04-12T18:33:58.998Z,102127.13
2024-04-12T18:36:13.577Z,102122.75
2024-04-12T18:38:35.120Z,102105.78
2024-04-12T18:40:59.018Z,102129.28
2024-04-12T18:43:19.538Z,102127.94
2024-04-12T18:45:24.086Z,102117.38
2024-04-12T18:47:26.815Z,102127.16
2024-04-12T18:49:32.414Z,102120.59
2024-04-12T18:51:34.771Z,102120.91
2024-04-12T18:53:39.511Z,102111.91
2024-04-12T18:55:48.192Z,102126.41
2024-04-12T18:57:53.100Z,102142.59
2024-04-12T18:59:55.148Z,102139.84
2024-04-12T19:01:59.935Z,102132.69
2024-04-12T19:04:01.870Z,102138.78
2024-04-12T19:06:08.378Z,102127.22
2024-04-12T19:08:10.251Z,102134.50
2024-04-12T19:10:15.886Z,102130.28
2024-04-12T19:12:23.884Z,102107.81
2024-04-12T19:14:28.585Z,102132.53
2024-04-12T19:16:30.394Z,102132.22
2024-04-12T19:18:35.070Z,102129.78
2024-04-12T19:20:40.839Z,102126.09
2024-04-12T19:22:48.091Z,102148.69
2024-04-12T19:24:50.445Z,102127.78
2024-04-12T19:26:55.391Z,102119.94
2024-04-12T19:29:00.686Z,102149.44
2024-04-12T19:31:06.470Z,102136.91
2024-04-12T19:33:09.106Z,102154.28
2024-04-12T19:35:13.768Z,102145.91
2024-04-12T19:37:15.633Z,102143.47
2024-04-12T19:39:18.884Z,102126.47
2024-04-12T19:41:23.631Z,102124.91
2024-04-12T19:43:26.237Z,102125.97
2024-04-12T19:45:33.409Z,102123.53
2024-04-12T19:47:35.596Z,102138.97
2024-04-12T19:49:40.510Z,102138.81
2024-04-12T19:51:42.401Z,102131.63
2024-04-12T19:53:47.167Z,102115.72
2024-04-12T19:55:56.443Z,102125.94
2024-04-12T19:58:01.544Z,102098.00
2024-04-12T20:00:06.909Z,102113.25
2024-04-12T20:02:15.167Z,102121.00
2024-04-12T20:04:18.247Z,102132.91
2024-04-12T20:06:27.258Z,102107.03
2024-04-12T20:08:29.646Z,102127.84
2024-04-12T20:10:34.992Z,102118.81
2024-04-12T20:12:37.212Z,102097.97
2024-04-12T20:14:47.470Z,102127.13
2024-04-12T20:16:50.785Z,102127.91
2024-04-12T20:19:00.920Z,102122.38
2024-04-12T20:21:04.010Z,102115.81
2024-04-12T20:23:09.870Z,102123.09
2024-04-12T20:25:16.356Z,102123.88
2024-04-12T20:27:23.760Z,102113.06
2024-04-12T20:29:28.343Z,102118.16
2024-04-12T20:31:39.084Z,102134.22
2024-04-12T20:33:59.818Z,102127.91
2024-04-12T20:36:26.642Z,102115.38
2024-04-12T20:38:28.951Z,102123.59
2024-04-12T20:40:53.087Z,102116.28
2024-04-12T20:42:55.133Z,102138.88
2024-04-12T20:45:00.604Z,102078.34
2024-04-12T20:47:02.736Z,102133.44
2024-04-12T20:49:08.159Z,102117.22
2024-04-12T20:51:12.882Z,102092.72
2024-04-12T20:53:17.717Z,102106.69
2024-04-12T20:55:26.309Z,102112.94
2024-04-12T20:57:30.876Z,102125.78
2024-04-12T20:59:33.230Z,102119.63
2024-04-12T21:01:47.768Z,102135.47
2024-04-12T21:03:50.014Z,102073.81
2024-04-12T21:05:59.063Z,102113.31
2024-04-12T21:08:05.110Z,102106.94
2024-04-12T21:10:10.128Z,102123.75
2024-04-12T21:12:13.819Z,102104.19
2024-04-12T21:14:20.335Z,102119.28
2024-04-12T21:16:22.544Z,102096.03
2024-04-12T21:18:27.545Z,102117.44
2024-04-12T21:20:29.458Z,102114.16
2024-04-12T21:22:35.069Z,102094.63
2024-04-12T21:24:39.677Z,102100.75
2024-04-12T21:26:44.658Z,102101.81
2024-04-12T21:28:48.128Z,102098.66
2024-04-12T21:30:53.071Z,102097.09
2024-04-12T21:32:56.115Z,102087.78
2024-04-12T21:35:00.919Z,102102.72
2024-04-12T21:37:03.214Z,102031.03
2024-04-12T21:39:08.279Z,102097.25
2024-04-12T21:41:14.258Z,102101.47
2024-04-12T21:43:19.184Z,102094.81
2024-04-12T21:45:22.410Z,102091.72
2024-04-12T21:47:26.921Z,102109.91
2024-04-12T21:49:28.991Z,102097.31
2024-04-12T21:51:34.755Z,102105.09
2024-04-12T21:53:38.188Z,102075.22
2024-04-12T21:55:43.205Z,102090.25
2024-04-12T21:57:47.727Z,102107.50
2024-04-12T21:59:52.563Z,102102.47
2024-04-12T22:01:54.407Z,102101.25
2024-04-12T22:03:59.002Z,102110.88
2024-04-12T22:06:02.364Z,102105.97
2024-04-12T22:08:09.312Z,102091.34
2024-04-12T22:10:11.209Z,102098.00
2024-04-12T22:12:15.963Z,102100.75
2024-04-12T22:14:23.702Z,102096.06
2024-04-12T22:16:28.197Z,102102.16
2024-04-12T22:18:31.445Z,102098.44
2024-04-12T22:20:36.170Z,102087.06
2024-04-12T22:22:38.020Z,102070.88
2024-04-12T22:24:43.793Z,102077.31
2024-04-12T22:26:46.009Z,102080.97
2024-04-12T22:28:50.716Z,102087.06
2024-04-12T22:30:55.346Z,102068.69
2024-04-12T22:33:00.043Z,102061.25
2024-04-12T22:35:04.889Z,102081.50
2024-04-12T22:37:09.330Z,102065.72
2024-04-12T22:39:11.200Z,102053.28
2024-04-12T22:41:13.151Z,102069.47
2024-04-12T22:43:17.924Z,102064.78
2024-04-12T22:45:19.886Z,102068.91
2024-04-12T22:47:27.090Z,102063.00
2024-04-12T22:49:29.280Z,102067.59
2024-04-12T22:51:34.112Z,102056.13
2024-04-12T22:53:36.569Z,102063.75
2024-04-12T22:55:42.404Z,102040.38
2024-04-12T22:57:48.812Z,102025.81
2024-04-12T22:59:50.671Z,102057.34
2024-04-12T23:01:55.165Z,102050.44
2024-04-12T23:03:59.693Z,102033.59
2024-04-12T23:06:04.824Z,102061.72
2024-04-12T23:08:06.975Z,102054.91
2024-04-12T23:10:11.782Z,102045.50
2024-04-12T23:12:15.443Z,102021.78
2024-04-12T23:14:20.144Z,102055.91
2024-04-12T23:16:22.234Z,102045.84
2024-04-12T23:18:26.734Z,102046.91
2024-04-12T23:20:31.189Z,102057.75
2024-04-12T23:22:36.151Z,102050.41
2024-04-12T23:24:38.209Z,102058.75
2024-04-12T23:26:43.220Z,102037.50
2024-04-12T23:28:45.228Z,102037.09
2024-04-12T23:30:50.142Z,102029.53
2024-04-12T23:32:52.812Z,102049.56
2024-04-12T23:34:57.577Z,102051.31
2024-04-12T23:37:02.075Z,102027.13
2024-04-12T23:39:07.528Z,102055.03
2024-04-12T23:41:09.462Z,102042.91
2024-04-12T23:43:13.816Z,102053.06
2024-04-12T23:45:16.613Z,102038.16
2024-04-12T23:47:21.511Z,102051.53
2024-04-12T23:49:23.661Z,102034.66
2024-04-12T23:51:31.297Z,101992.56
2024-04-12T23:53:36.037Z,102033.25
2024-04-12T23:55:40.456Z,102050.09
2024-04-12T23:57:42.508Z,102053.38
2024-04-12T23:59:50.017Z,102047.28
